Time;durP1;ratioP1;P1;durP2;ratioP2;P2;SDS_P1;SDS_P2;PMS_P1;PMS_P2;Temp;Humidity;BMP_temperature;BMP_pressure;BME280_temperature;BME280_humidity;BME280_pressure;Samples;Min_cycle;Max_cycle;Signal;HPM_P1;HPM_P2
2024/02/11 00:01:37;;;;;;;59.38;34.88;;;;;;;15.15;83.49;98794.69;4944621;28;98655;-76
2024/02/11 00:04:04;;;;;;;57.47;34.00;;;;;;;15.26;82.56;98783.13;4945739;28;98930;-75
2024/02/11 00:06:30;;;;;;;62.08;33.67;;;;;;;15.11;83.12;98793.25;4950980;28;96797;-76
2024/02/11 00:08:57;;;;;;;57.20;33.63;;;;;;;15.17;83.37;98790.06;4947844;28;96907;-75
2024/02/11 00:11:24;;;;;;;61.67;33.83;;;;;;;15.24;82.58;98788.56;4948785;28;99470;-74
2024/02/11 00:13:50;;;;;;;68.47;36.10;;;;;;;15.29;82.88;98785.53;4952619;28;99402;-76
2024/02/11 00:16:18;;;;;;;58.25;35.10;;;;;;;15.11;83.34;98782.63;4951836;28;97120;-75
2024/02/11 00:18:45;;;;;;;63.40;35.75;;;;;;;15.30;82.60;98782.72;4948594;28;96803;-74
2024/02/11 00:21:13;;;;;;;59.30;34.78;;;;;;;15.32;82.75;98778.13;4947349;28;99843;-76
2024/02/11 00:23:42;;;;;;;65.10;38.00;;;;;;;15.30;82.73;98774.75;4947952;28;98977;-73
2024/02/11 00:26:08;;;;;;;69.03;38.92;;;;;;;15.05;83.45;98765.38;4942375;28;100110;-76
2024/02/11 00:28:34;;;;;;;70.95;38.95;;;;;;;15.17;83.17;98771.44;4947597;28;97604;-75
2024/02/11 00:31:03;;;;;;;70.00;39.70;;;;;;;15.14;83.14;98767.25;4947282;28;99286;-75
2024/02/11 00:33:32;;;;;;;74.22;40.30;;;;;;;14.87;84.98;98768.75;4947911;28;100406;-76
2024/02/11 00:36:00;;;;;;;80.50;42.10;;;;;;;14.93;84.82;98761.09;4948106;28;97267;-75
2024/02/11 00:38:26;;;;;;;72.03;40.25;;;;;;;14.85;85.03;98765.34;4945470;28;97133;-76
2024/02/11 00:40:53;;;;;;;71.43;38.28;;;;;;;14.85;84.75;98768.00;4946453;28;99043;-76
2024/02/11 00:43:20;;;;;;;74.75;38.80;;;;;;;14.99;84.53;98757.91;4945385;28;98788;-76
2024/02/11 00:45:46;;;;;;;77.00;39.13;;;;;;;14.87;84.96;98769.59;4947326;28;99254;-74
2024/02/11 00:48:12;;;;;;;71.03;39.15;;;;;;;14.90;84.48;98765.84;4946880;28;97273;-76
2024/02/11 00:50:40;;;;;;;72.13;40.03;;;;;;;15.02;84.16;98754.16;4949654;28;98213;-76
2024/02/11 00:53:07;;;;;;;80.35;42.53;;;;;;;14.99;84.39;98757.06;4948114;28;99434;-76
2024/02/11 00:55:35;;;;;;;76.47;41.75;;;;;;;14.99;84.16;98757.06;4953685;28;96825;-76
2024/02/11 00:58:02;;;;;;;75.72;40.70;;;;;;;15.06;84.02;98758.22;4949357;28;97528;-77
2024/02/11 01:00:29;;;;;;;77.90;41.78;;;;;;;15.04;84.04;98754.84;4943722;28;97742;-75
2024/02/11 01:02:56;;;;;;;79.97;42.47;;;;;;;15.08;83.78;98750.97;4943331;28;99191;-75
2024/02/11 01:05:23;;;;;;;81.43;41.88;;;;;;;14.99;83.28;98746.41;4946841;28;97355;-75
2024/02/11 01:07:51;;;;;;;77.90;40.92;;;;;;;15.00;83.64;98745.44;4946728;28;97849;-75
2024/02/11 01:10:18;;;;;;;81.20;42.30;;;;;;;14.84;84.21;98758.34;4944706;28;98973;-75
2024/02/11 01:12:46;;;;;;;80.80;42.67;;;;;;;15.01;83.77;98749.81;4946993;28;98950;-75
2024/02/11 01:15:16;;;;;;;79.88;39.55;;;;;;;14.97;83.53;98748.34;4946322;28;100918;-76
2024/02/11 01:17:43;;;;;;;79.75;40.97;;;;;;;14.79;84.06;98752.56;4946717;28;97797;-74
2024/02/11 01:20:13;;;;;;;81.28;40.90;;;;;;;14.70;84.37;98746.25;4943966;28;99219;-75
2024/02/11 01:22:39;;;;;;;84.57;41.00;;;;;;;14.63;84.67;98751.22;4944485;28;99183;-75
2024/02/11 01:25:08;;;;;;;77.78;39.88;;;;;;;14.67;84.40;98736.69;4945587;28;98739;-74
2024/02/11 01:27:37;;;;;;;77.53;39.88;;;;;;;14.65;85.09;98746.59;4946806;28;96938;-74
2024/02/11 01:30:03;;;;;;;83.20;41.97;;;;;;;14.81;84.34;98737.34;4943878;28;99445;-76
2024/02/11 01:32:30;;;;;;;79.65;40.97;;;;;;;14.80;84.08;98744.47;4946126;28;98772;-73
2024/02/11 01:34:56;;;;;;;76.57;39.50;;;;;;;14.95;83.33;98745.00;4946113;28;96931;-75
2024/02/11 01:37:23;;;;;;;81.70;40.55;;;;;;;14.97;82.73;98743.88;4948184;28;97785;-73
2024/02/11 01:39:49;;;;;;;78.97;39.83;;;;;;;14.91;82.93;98739.09;4951564;28;98933;-75
2024/02/11 01:42:17;;;;;;;78.13;40.58;;;;;;;14.72;83.30;98738.97;4950572;28;99035;-75
2024/02/11 01:44:43;;;;;;;84.57;40.58;;;;;;;14.75;83.49;98736.91;4946229;28;97805;-76
2024/02/11 01:47:09;;;;;;;86.80;43.13;;;;;;;14.98;82.49;98742.06;4945402;28;96853;-75
2024/02/11 01:49:36;;;;;;;85.72;40.80;;;;;;;14.93;82.56;98744.28;4948273;28;97873;-75
2024/02/11 01:52:05;;;;;;;80.75;40.10;;;;;;;14.64;82.98;98747.56;4945693;28;97482;-74
2024/02/11 01:54:33;;;;;;;79.53;41.40;;;;;;;14.74;82.95;98742.34;4947553;28;97081;-74
2024/02/11 01:57:01;;;;;;;84.53;40.80;;;;;;;14.83;82.52;98740.72;4947596;28;97391;-76
2024/02/11 01:59:36;;;;;;;80.65;41.05;;;;;;;14.84;82.72;98745.06;4946889;28;98633;-75
2024/02/11 02:02:07;;;;;;;78.00;38.72;;;;;;;14.87;82.03;98755.44;4941127;28;100996;-75
2024/02/11 02:04:33;;;;;;;86.05;41.38;;;;;;;14.77;82.27;98749.22;4944011;28;96983;-76
2024/02/11 02:07:00;;;;;;;80.93;40.85;;;;;;;14.86;81.87;98745.78;4945372;28;99517;-76
2024/02/11 02:09:26;;;;;;;85.15;40.85;;;;;;;14.88;81.91;98743.84;4944576;28;98955;-75
2024/02/11 02:11:53;;;;;;;86.35;41.47;;;;;;;14.97;81.46;98745.69;4944624;28;99138;-75
2024/02/11 02:14:20;;;;;;;83.93;40.20;;;;;;;14.95;81.01;98739.69;4946263;28;96929;-75
2024/02/11 02:16:47;;;;;;;86.80;40.38;;;;;;;14.79;81.92;98739.28;4944501;28;97337;-75
2024/02/11 02:19:14;;;;;;;82.68;40.75;;;;;;;14.81;81.75;98737.34;4947075;28;98297;-75
2024/02/11 02:21:47;;;;;;;92.25;42.05;;;;;;;14.69;82.32;98742.75;4946217;28;98875;-75
2024/02/11 02:24:16;;;;;;;87.65;41.35;;;;;;;14.70;82.31;98736.41;4941625;28;98267;-75
2024/02/11 02:26:42;;;;;;;83.18;40.92;;;;;;;14.75;82.27;98738.72;4947285;28;98706;-76
2024/02/11 02:29:08;;;;;;;88.80;41.25;;;;;;;14.80;81.77;98722.38;4946058;28;98378;-76
2024/02/11 02:31:35;;;;;;;84.78;42.25;;;;;;;14.64;81.86;98717.50;4948368;28;98822;-74
2024/02/11 02:34:01;;;;;;;87.00;39.88;;;;;;;14.84;81.68;98723.78;4951720;28;97747;-75
2024/02/11 02:36:28;;;;;;;87.50;41.63;;;;;;;14.84;81.51;98721.13;4949555;28;96872;-75
2024/02/11 02:38:56;;;;;;;86.15;41.22;;;;;;;14.73;81.74;98722.88;4950544;28;97612;-76
2024/02/11 02:41:22;;;;;;;87.40;41.97;;;;;;;14.68;82.09;98727.75;4942228;28;100609;-77
2024/02/11 02:43:49;;;;;;;91.10;41.00;;;;;;;14.73;81.74;98714.91;4951363;28;97637;-77
2024/02/11 02:46:15;;;;;;;90.80;41.70;;;;;;;14.77;81.81;98717.31;4954740;28;98772;-77
2024/02/11 02:48:43;;;;;;;93.05;42.78;;;;;;;14.60;82.10;98718.72;4954896;28;102274;-77
2024/02/11 02:51:10;;;;;;;91.60;39.53;;;;;;;14.57;82.53;98713.69;4948122;28;98680;-75
2024/02/11 02:53:38;;;;;;;92.10;39.60;;;;;;;14.45;83.15;98712.03;4949776;28;97151;-75
2024/02/11 02:56:06;;;;;;;89.78;39.65;;;;;;;14.46;83.39;98711.06;4949083;28;96996;-76
2024/02/11 02:58:33;;;;;;;92.05;41.55;;;;;;;14.43;83.20;98708.69;4950905;28;98712;-75
2024/02/11 03:01:01;;;;;;;87.40;39.40;;;;;;;14.41;83.20;98706.13;4945262;28;98403;-76
2024/02/11 03:03:27;;;;;;;89.07;39.50;;;;;;;14.50;82.90;98702.72;4946605;28;97062;-75
2024/02/11 03:05:54;;;;;;;85.60;38.75;;;;;;;14.48;82.51;98695.84;4949034;28;97054;-75
2024/02/11 03:08:20;;;;;;;90.57;40.65;;;;;;;14.50;82.55;98685.94;4950044;28;97606;-75
2024/02/11 03:10:46;;;;;;;87.50;40.42;;;;;;;14.59;82.00;98691.31;4946262;28;98571;-75
2024/02/11 03:13:14;;;;;;;93.70;39.33;;;;;;;14.49;82.58;98690.41;4949145;28;97192;-76
2024/02/11 03:15:41;;;;;;;93.45;39.53;;;;;;;14.25;83.01;98687.94;4947697;28;98373;-76
2024/02/11 03:18:08;;;;;;;90.90;39.30;;;;;;;14.31;83.18;98686.56;4946412;28;100103;-75
2024/02/11 03:20:35;;;;;;;83.05;37.25;;;;;;;14.41;82.96;98681.38;4948337;28;99517;-77
2024/02/11 03:23:01;;;;;;;96.13;41.60;;;;;;;14.49;82.42;98678.94;4946045;28;98263;-76
2024/02/11 03:25:27;;;;;;;87.63;36.50;;;;;;;14.36;82.76;98684.41;4948410;28;97164;-75
2024/02/11 03:27:54;;;;;;;86.97;37.45;;;;;;;14.32;82.88;98675.81;4946774;28;99197;-75
2024/02/11 03:30:22;;;;;;;84.20;38.20;;;;;;;14.32;83.23;98680.28;4947815;28;99013;-76
2024/02/11 03:32:49;;;;;;;77.30;35.97;;;;;;;14.44;82.53;98673.97;4949572;28;96816;-76
2024/02/11 03:35:16;;;;;;;82.93;37.10;;;;;;;14.23;83.37;98686.38;4947571;28;99030;-75
2024/02/11 03:37:42;;;;;;;84.22;38.05;;;;;;;14.45;82.17;98686.31;4947758;28;99183;-74
2024/02/11 03:40:12;;;;;;;84.38;38.05;;;;;;;14.49;82.11;98679.78;4947638;28;98902;-74
2024/02/11 03:42:38;;;;;;;84.88;36.88;;;;;;;14.48;81.65;98680.75;4949199;28;96883;-74
2024/02/11 03:45:07;;;;;;;82.07;35.85;;;;;;;14.57;81.32;98687.91;4952480;28;96790;-74
2024/02/11 03:47:35;;;;;;;83.40;36.83;;;;;;;14.32;82.04;98689.09;4952100;28;99225;-75
2024/02/11 03:50:03;;;;;;;83.85;36.97;;;;;;;14.33;81.78;98684.63;4953171;28;98883;-75
2024/02/11 03:52:29;;;;;;;83.28;36.88;;;;;;;14.45;81.60;98683.63;4948075;28;97817;-75
2024/02/11 03:54:56;;;;;;;84.03;36.47;;;;;;;14.55;80.97;98689.03;4951938;28;97164;-76
2024/02/11 03:57:22;;;;;;;81.22;36.28;;;;;;;14.64;80.43;98696.22;4947551;28;99475;-76
2024/02/11 03:59:49;;;;;;;90.80;37.20;;;;;;;14.59;80.83;98688.66;4955731;28;98868;-76
2024/02/11 04:02:18;;;;;;;84.82;34.78;;;;;;;14.49;80.66;98692.22;4950096;28;96832;-76
2024/02/11 04:04:46;;;;;;;78.63;35.33;;;;;;;14.57;80.53;98695.91;4942529;28;97877;-76
2024/02/11 04:07:13;;;;;;;84.20;36.30;;;;;;;14.42;81.02;98696.34;4953351;28;99110;-76
2024/02/11 04:09:40;;;;;;;82.38;36.25;;;;;;;14.40;80.80;98699.13;4953307;28;100546;-77
2024/02/11 04:12:08;;;;;;;82.75;35.35;;;;;;;14.62;80.47;98691.06;4948225;28;97856;-76
2024/02/11 04:14:36;;;;;;;80.90;34.10;;;;;;;14.50;80.81;98697.41;4943680;28;96883;-75
2024/02/11 04:17:03;;;;;;;78.97;34.10;;;;;;;14.77;79.57;98696.06;4945834;28;98904;-75
2024/02/11 04:19:32;;;;;;;78.03;35.03;;;;;;;14.28;80.12;98694.81;4950086;28;101276;-75
2024/02/11 04:22:00;;;;;;;79.05;36.58;;;;;;;14.58;80.14;98696.75;4943573;28;96901;-74
2024/02/11 04:24:28;;;;;;;81.13;35.25;;;;;;;14.59;79.92;98688.66;4947042;28;97116;-75
2024/02/11 04:26:54;;;;;;;76.18;35.00;;;;;;;14.36;80.64;98689.72;4949849;28;99062;-74
2024/02/11 04:29:21;;;;;;;73.80;33.65;;;;;;;14.49;80.27;98692.22;4950526;28;98857;-75
2024/02/11 04:31:49;;;;;;;85.60;34.78;;;;;;;14.39;80.43;98691.28;4946055;28;97386;-76
2024/02/11 04:34:17;;;;;;;80.00;35.38;;;;;;;14.22;81.13;98687.34;4949389;28;98411;-75
2024/02/11 04:36:45;;;;;;;80.55;34.70;;;;;;;14.42;80.61;98683.06;4951341;28;99266;-76
2024/02/11 04:39:15;;;;;;;81.30;35.35;;;;;;;14.50;80.11;98680.63;4948561;28;99145;-74
2024/02/11 04:41:41;;;;;;;73.72;32.53;;;;;;;14.35;80.48;98688.88;4947232;28;97242;-74
2024/02/11 04:44:08;;;;;;;80.20;33.15;;;;;;;14.45;80.31;98682.78;4947677;28;97170;-73
2024/02/11 04:46:34;;;;;;;82.88;34.28;;;;;;;14.34;80.55;98687.19;4954344;28;100812;-74
2024/02/11 04:49:01;;;;;;;84.00;35.08;;;;;;;14.27;80.72;98685.16;4950274;28;98787;-73
2024/02/11 04:51:28;;;;;;;79.82;34.15;;;;;;;14.11;80.76;98674.94;4951725;28;97512;-72
2024/02/11 04:53:57;;;;;;;82.80;36.13;;;;;;;14.23;80.80;98678.41;4949178;28;97814;-74
2024/02/11 04:56:24;;;;;;;85.95;37.10;;;;;;;14.12;81.62;98675.78;4949457;28;99275;-74
2024/02/11 04:58:52;;;;;;;81.72;35.15;;;;;;;13.99;82.22;98678.59;4945442;28;98090;-75
2024/02/11 05:01:20;;;;;;;82.03;36.17;;;;;;;14.25;81.40;98681.75;4946037;28;97368;-73
2024/02/11 05:03:46;;;;;;;84.00;35.15;;;;;;;14.37;80.49;98680.78;4945318;28;97968;-74
2024/02/11 05:06:18;;;;;;;90.82;37.42;;;;;;;14.10;81.55;98675.09;4943828;28;98848;-74
2024/02/11 05:08:45;;;;;;;88.82;37.72;;;;;;;14.09;81.48;98681.38;4951730;28;100553;-74
2024/02/11 05:11:11;;;;;;;89.30;37.25;;;;;;;14.34;80.51;98679.19;4942563;28;97065;-74
2024/02/11 05:13:41;;;;;;;87.28;36.70;;;;;;;14.07;81.55;98688.59;4946922;28;97528;-74
2024/02/11 05:16:08;;;;;;;90.13;36.65;;;;;;;14.37;80.18;98683.44;4946420;28;99272;-75
2024/02/11 05:18:38;;;;;;;89.32;36.85;;;;;;;14.14;80.77;98684.47;4949547;28;99118;-76
2024/02/11 05:21:05;;;;;;;91.93;37.42;;;;;;;14.17;80.48;98685.09;4945898;28;97218;-76
2024/02/11 05:23:33;;;;;;;83.05;35.45;;;;;;;14.27;80.56;98685.16;4947261;28;98096;-75
2024/02/11 05:26:01;;;;;;;83.97;37.28;;;;;;;14.21;80.98;98675.88;4943465;28;97909;-76
2024/02/11 05:28:27;;;;;;;82.55;36.60;;;;;;;14.30;80.19;98683.09;4945132;28;99354;-75
2024/02/11 05:30:55;;;;;;;96.07;38.42;;;;;;;14.24;80.42;98683.56;4946863;28;97722;-76
2024/02/11 05:33:22;;;;;;;83.57;36.33;;;;;;;14.30;80.22;98679.59;4944872;28;97024;-76
2024/02/11 05:35:51;;;;;;;86.10;37.15;;;;;;;14.55;79.57;98673.94;4948762;28;99170;-76
2024/02/11 05:38:19;;;;;;;93.47;37.00;;;;;;;14.34;79.78;98687.19;4951631;28;99207;-75
2024/02/11 05:40:48;;;;;;;87.07;37.15;;;;;;;14.19;79.93;98679.63;4946424;28;96866;-76
2024/02/11 05:43:15;;;;;;;81.22;35.17;;;;;;;14.21;79.38;98675.88;4950158;28;97919;-75
2024/02/11 05:45:43;;;;;;;90.32;37.97;;;;;;;14.06;80.74;98676.28;4949833;28;99036;-75
2024/02/11 05:48:12;;;;;;;92.22;36.63;;;;;;;14.02;80.94;98678.38;4950740;28;98041;-76
2024/02/11 05:50:40;;;;;;;88.75;38.25;;;;;;;14.21;80.26;98673.22;4947194;28;97982;-75
2024/02/11 05:53:06;;;;;;;93.45;37.13;;;;;;;14.00;80.50;98679.44;4949708;28;96914;-75
2024/02/11 05:55:33;;;;;;;86.45;36.50;;;;;;;14.08;80.80;98677.03;4950943;28;98925;-75
2024/02/11 05:57:59;;;;;;;99.00;37.45;;;;;;;14.00;80.92;98679.44;4945195;28;99142;-75
2024/02/11 06:00:29;;;;;;;86.78;36.13;;;;;;;14.11;80.27;98674.13;4947595;28;97896;-75
2024/02/11 06:02:56;;;;;;;91.07;36.85;;;;;;;14.10;80.49;98672.44;4948889;28;97804;-75
2024/02/11 06:05:26;;;;;;;93.13;36.47;;;;;;;14.12;79.60;98676.63;4943962;28;99045;-75
2024/02/11 06:07:55;;;;;;;88.15;35.22;;;;;;;14.05;80.25;98680.75;4941738;28;98096;-75
2024/02/11 06:10:23;;;;;;;91.47;37.05;;;;;;;14.00;80.54;98684.75;4943902;28;97767;-75
2024/02/11 06:12:50;;;;;;;83.05;34.88;;;;;;;13.98;80.21;98676.09;4943106;28;97036;-75
2024/02/11 06:15:20;;;;;;;89.25;35.42;;;;;;;14.07;80.14;98680.63;4943800;28;98997;-75
2024/02/11 06:17:47;;;;;;;88.22;35.13;;;;;;;14.06;80.38;98686.91;4950987;28;98867;-75
2024/02/11 06:20:15;;;;;;;92.55;35.53;;;;;;;14.08;79.81;98687.63;4945351;28;97257;-76
2024/02/11 06:22:43;;;;;;;87.63;35.50;;;;;;;14.24;79.20;98690.72;4944088;28;97879;-75
2024/02/11 06:25:11;;;;;;;89.80;37.22;;;;;;;14.08;79.80;98695.59;4944328;28;98977;-76
2024/02/11 06:27:39;;;;;;;86.75;37.42;;;;;;;14.16;79.56;98693.16;4949659;28;97897;-76
2024/02/11 06:30:08;;;;;;;89.13;36.85;;;;;;;14.21;79.50;98693.63;4945915;28;96940;-76
2024/02/11 06:32:36;;;;;;;91.60;36.90;;;;;;;14.24;79.06;98693.38;4949245;28;97344;-77
2024/02/11 06:35:03;;;;;;;91.97;36.80;;;;;;;14.07;79.81;98697.41;4949920;28;99438;-76
2024/02/11 06:37:31;;;;;;;89.47;36.22;;;;;;;13.93;79.73;98695.88;4951446;28;99204;-75
2024/02/11 06:39:59;;;;;;;94.75;36.13;;;;;;;13.90;80.45;98704.13;4944618;28;97105;-74
2024/02/11 06:42:30;;;;;;;90.85;37.03;;;;;;;13.80;81.20;98713.78;4950694;28;97035;-75
2024/02/11 06:44:57;;;;;;;89.32;35.67;;;;;;;13.63;81.37;98709.00;4950110;28;102108;-75
2024/02/11 06:47:23;;;;;;;93.38;35.15;;;;;;;13.66;81.57;98707.88;4951329;28;102100;-76
2024/02/11 06:49:50;;;;;;;88.95;34.70;;;;;;;13.80;81.40;98721.75;4948944;28;98066;-76
2024/02/11 06:52:18;;;;;;;96.43;37.08;;;;;;;13.92;80.36;98717.25;4943276;28;98328;-75
2024/02/11 06:54:44;;;;;;;93.55;37.03;;;;;;;13.67;81.46;98720.19;4947088;28;98395;-75
2024/02/11 06:57:11;;;;;;;102.28;36.53;;;;;;;13.76;81.45;98712.34;4948617;28;98790;-74
2024/02/11 06:59:38;;;;;;;95.65;35.63;;;;;;;13.72;81.11;98716.19;4941997;28;96882;-75
2024/02/11 07:02:06;;;;;;;93.72;34.28;;;;;;;13.83;81.00;98724.16;4944506;28;97676;-75
2024/02/11 07:04:33;;;;;;;95.65;36.05;;;;;;;13.86;80.50;98721.25;4942681;28;99280;-75
2024/02/11 07:07:00;;;;;;;88.05;34.95;;;;;;;13.91;80.27;98716.41;4940368;28;98935;-75
2024/02/11 07:09:26;;;;;;;91.88;36.45;;;;;;;13.91;80.74;98716.41;4944573;28;97867;-74
2024/02/11 07:11:54;;;;;;;91.53;36.20;;;;;;;13.69;80.82;98720.91;4943288;28;97584;-76
2024/02/11 07:14:23;;;;;;;89.88;34.88;;;;;;;13.87;80.39;98722.94;4947498;28;99178;-75
2024/02/11 07:16:51;;;;;;;103.28;36.65;;;;;;;13.98;79.79;98725.56;4950111;28;98829;-73
2024/02/11 07:19:18;;;;;;;95.68;35.60;;;;;;;14.14;78.87;98727.81;4944873;28;98424;-75
2024/02/11 07:21:44;;;;;;;94.35;35.88;;;;;;;13.96;79.47;98734.63;4938342;28;96809;-75
2024/02/11 07:24:11;;;;;;;88.32;34.80;;;;;;;14.09;79.32;98730.00;4947738;28;98009;-74
2024/02/11 07:26:38;;;;;;;91.70;36.33;;;;;;;14.27;78.31;98733.81;4947875;28;99692;-75
2024/02/11 07:29:05;;;;;;;80.45;33.25;;;;;;;14.11;78.56;98738.69;4943044;28;96954;-75
2024/02/11 07:31:33;;;;;;;96.72;35.63;;;;;;;14.19;77.95;98741.56;4945162;28;98154;-76
2024/02/11 07:34:00;;;;;;;93.00;35.95;;;;;;;14.27;78.43;98740.94;4947115;28;99233;-75
2024/02/11 07:36:26;;;;;;;90.75;33.50;;;;;;;14.14;78.30;98734.94;4946474;28;99295;-75
2024/02/11 07:38:53;;;;;;;85.20;33.85;;;;;;;13.98;79.05;98736.19;4947472;28;97396;-75
2024/02/11 07:41:19;;;;;;;89.90;35.38;;;;;;;13.96;79.39;98743.44;4945386;28;98216;-75
2024/02/11 07:43:46;;;;;;;90.47;35.22;;;;;;;13.92;79.69;98736.69;4945238;28;97849;-75
2024/02/11 07:46:14;;;;;;;91.60;35.35;;;;;;;14.02;79.09;98738.59;4948121;28;99137;-76
2024/02/11 07:48:42;;;;;;;87.90;34.35;;;;;;;14.17;78.91;98729.41;4948088;28;96731;-76
2024/02/11 07:51:08;;;;;;;82.38;33.47;;;;;;;14.13;78.53;98735.91;4944119;28;96852;-74
2024/02/11 07:53:35;;;;;;;89.85;35.67;;;;;;;14.09;78.55;98727.34;4947414;28;99255;-74
2024/02/11 07:56:02;;;;;;;92.25;36.15;;;;;;;14.00;78.84;98732.56;4949626;28;98800;-75
2024/02/11 07:58:28;;;;;;;89.97;34.65;;;;;;;14.14;78.49;98730.47;4951546;28;96809;-77
2024/02/11 08:00:55;;;;;;;83.75;32.75;;;;;;;14.05;78.84;98733.88;4942554;28;98509;-75
2024/02/11 08:03:22;;;;;;;86.50;33.88;;;;;;;14.18;78.92;98731.91;4948364;28;102096;-74
2024/02/11 08:05:50;;;;;;;88.25;35.00;;;;;;;14.16;78.45;98735.66;4943207;28;97528;-75
2024/02/11 08:08:17;;;;;;;83.57;34.00;;;;;;;14.04;78.58;98736.66;4947586;28;98083;-75
2024/02/11 08:10:43;;;;;;;93.57;35.88;;;;;;;14.08;79.09;98738.09;4936382;28;97222;-76
2024/02/11 08:13:10;;;;;;;96.65;38.22;;;;;;;14.19;78.22;98740.72;4941552;28;102077;-75
2024/02/11 08:15:37;;;;;;;87.20;33.80;;;;;;;13.99;79.07;98737.03;4942235;28;97560;-76
2024/02/11 08:18:05;;;;;;;90.22;35.15;;;;;;;14.17;78.70;98745.31;4948390;28;97085;-75
2024/02/11 08:20:32;;;;;;;84.63;32.28;;;;;;;14.02;79.00;98742.09;4945640;28;97383;-75
2024/02/11 08:23:00;;;;;;;91.03;33.78;;;;;;;13.98;79.08;98744.16;4939852;28;99087;-75
2024/02/11 08:25:27;;;;;;;83.10;31.50;;;;;;;14.15;79.17;98741.94;4943420;28;99983;-75
2024/02/11 08:27:53;;;;;;;83.05;32.33;;;;;;;14.28;78.33;98739.97;4947105;28;97521;-75
2024/02/11 08:30:22;;;;;;;90.38;34.60;;;;;;;14.23;78.28;98740.34;4942333;28;97421;-75
2024/02/11 08:32:48;;;;;;;85.07;33.00;;;;;;;14.26;78.37;98739.25;4946234;28;98961;-75
2024/02/11 08:35:20;;;;;;;88.80;34.78;;;;;;;14.15;78.26;98734.81;4945564;28;98169;-76
2024/02/11 08:37:46;;;;;;;86.03;33.83;;;;;;;14.38;77.95;98729.44;4948282;28;97742;-77
2024/02/11 08:40:14;;;;;;;85.90;32.90;;;;;;;14.30;78.00;98736.22;4944923;28;97584;-76
2024/02/11 08:42:41;;;;;;;88.88;33.58;;;;;;;14.24;78.02;98733.25;4944297;28;100840;-76
2024/02/11 08:45:08;;;;;;;91.55;32.10;;;;;;;14.28;78.00;98732.00;4943929;28;98939;-78
2024/02/11 08:47:34;;;;;;;92.25;36.33;;;;;;;14.15;78.59;98734.81;4945232;28;96871;-77
2024/02/11 08:50:01;;;;;;;95.28;35.65;;;;;;;14.21;78.11;98742.28;4942179;28;97260;-71
2024/02/11 08:52:27;;;;;;;83.07;33.90;;;;;;;14.08;78.62;98741.59;4945957;28;98898;-75
2024/02/11 08:54:54;;;;;;;89.78;35.10;;;;;;;14.21;78.35;98742.28;4945423;28;98798;-75
2024/02/11 08:57:23;;;;;;;84.22;33.35;;;;;;;14.12;78.96;98742.19;4945159;28;97663;-75
2024/02/11 08:59:50;;;;;;;86.53;33.58;;;;;;;14.16;78.56;98741.81;4940847;28;97957;-77
2024/02/11 09:02:17;;;;;;;88.72;32.30;;;;;;;14.38;77.82;98745.38;4942167;28;100742;-74
2024/02/11 09:04:43;;;;;;;93.55;36.13;;;;;;;14.48;77.47;98744.53;4940564;28;98805;-75
2024/02/11 09:07:11;;;;;;;91.20;36.22;;;;;;;14.49;76.99;98751.53;4944200;28;98693;-76
2024/02/11 09:09:37;;;;;;;91.15;36.00;;;;;;;14.53;76.42;98752.09;4940963;28;97414;-75
2024/02/11 09:12:05;;;;;;;80.78;34.13;;;;;;;14.50;76.78;98752.38;4945055;28;99049;-75
2024/02/11 09:14:37;;;;;;;85.03;33.33;;;;;;;14.66;76.04;98756.28;4946059;28;99058;-74
2024/02/11 09:17:05;;;;;;;78.15;32.55;;;;;;;14.50;76.46;98755.03;4945236;28;97272;-75
2024/02/11 09:19:32;;;;;;;80.13;33.35;;;;;;;14.48;77.10;98756.97;4948721;28;96928;-75
2024/02/11 09:21:58;;;;;;;89.75;34.08;;;;;;;14.68;75.76;98749.03;4942550;28;99942;-75
2024/02/11 09:24:25;;;;;;;94.13;34.63;;;;;;;14.56;76.61;98754.53;4943203;28;99013;-77
2024/02/11 09:26:52;;;;;;;87.05;35.08;;;;;;;14.43;76.54;98751.19;4941559;28;99115;-76
2024/02/11 09:29:20;;;;;;;87.82;35.65;;;;;;;14.50;76.66;98755.88;4939810;28;96951;-75
2024/02/11 09:31:48;;;;;;;87.43;36.72;;;;;;;14.49;76.12;98761.31;4940610;28;99039;-75
2024/02/11 09:34:15;;;;;;;87.18;34.28;;;;;;;14.32;77.40;98760.00;4939383;28;98898;-75
2024/02/11 09:36:41;;;;;;;81.13;34.00;;;;;;;14.62;76.69;98749.53;4938595;28;99028;-75
2024/02/11 09:39:10;;;;;;;93.82;35.47;;;;;;;14.63;76.00;98751.22;4943033;28;97963;-74
2024/02/11 09:41:37;;;;;;;91.00;34.67;;;;;;;14.68;76.03;98753.50;4941585;28;98220;-73
2024/02/11 09:44:04;;;;;;;85.40;33.70;;;;;;;14.77;75.92;98750.03;4938582;28;100393;-75
2024/02/11 09:46:34;;;;;;;85.72;34.42;;;;;;;14.59;76.04;98749.78;4938436;28;96889;-75
2024/02/11 09:49:05;;;;;;;85.40;33.78;;;;;;;14.66;76.41;98750.94;4942252;28;99191;-75
2024/02/11 09:51:33;;;;;;;88.53;34.22;;;;;;;14.82;76.24;98747.03;4936077;28;99138;-75
2024/02/11 09:54:00;;;;;;;83.75;35.20;;;;;;;14.84;75.87;98753.88;4940257;28;100405;-76
2024/02/11 09:56:27;;;;;;;90.18;35.03;;;;;;;14.75;75.73;98760.84;4939555;28;97938;-76
2024/02/11 09:58:53;;;;;;;93.72;35.58;;;;;;;14.71;75.69;98758.53;4938006;28;97688;-76
2024/02/11 10:01:21;;;;;;;77.88;33.67;;;;;;;14.96;75.51;98750.22;4942380;28;99499;-75
2024/02/11 10:03:53;;;;;;;90.30;34.50;;;;;;;14.84;75.78;98756.53;4945878;28;97709;-75
2024/02/11 10:06:26;;;;;;;90.25;35.13;;;;;;;14.89;75.22;98758.81;4940484;28;97167;-77
2024/02/11 10:08:53;;;;;;;81.88;34.25;;;;;;;15.06;74.98;98758.22;4941667;28;97257;-76
2024/02/11 10:11:19;;;;;;;82.18;33.45;;;;;;;15.02;74.98;98748.84;4935986;28;102108;-75
2024/02/11 10:13:46;;;;;;;81.45;33.65;;;;;;;15.12;74.16;98758.56;4944939;28;98732;-75
2024/02/11 10:16:12;;;;;;;81.80;34.65;;;;;;;14.82;75.65;98762.97;4936234;28;100832;-75
2024/02/11 10:18:39;;;;;;;77.68;31.58;;;;;;;14.85;75.63;98755.56;4937019;28;98988;-75
2024/02/11 10:21:08;;;;;;;87.50;33.83;;;;;;;14.49;76.43;98751.53;4941110;28;99135;-75
2024/02/11 10:23:40;;;;;;;76.32;32.88;;;;;;;14.63;76.89;98761.00;4945675;28;101985;-75
2024/02/11 10:26:08;;;;;;;74.10;32.65;;;;;;;14.63;76.51;98761.84;4947324;28;97126;-75
2024/02/11 10:28:37;;;;;;;83.43;31.98;;;;;;;14.42;77.15;98763.63;4944214;28;98147;-77
2024/02/11 10:31:03;;;;;;;74.68;31.98;;;;;;;14.27;77.98;98764.84;4940247;28;99839;-75
2024/02/11 10:33:30;;;;;;;74.70;32.13;;;;;;;14.46;77.37;98761.53;4948764;28;98788;-74
2024/02/11 10:35:57;;;;;;;75.65;32.20;;;;;;;14.73;76.56;98762.75;4944118;28;98417;-74
2024/02/11 10:38:23;;;;;;;70.97;29.90;;;;;;;14.63;76.78;98758.34;4943248;28;97752;-74
2024/02/11 10:40:52;;;;;;;71.22;30.55;;;;;;;14.60;76.76;98759.44;4941325;28;97720;-75
2024/02/11 10:43:21;;;;;;;69.50;29.17;;;;;;;14.68;76.03;98759.66;4946809;28;99479;-74
2024/02/11 10:45:48;;;;;;;72.20;30.75;;;;;;;14.52;76.89;98761.03;4949636;28;97357;-73
2024/02/11 10:48:14;;;;;;;62.75;30.00;;;;;;;14.85;75.91;98760.03;4949684;28;96988;-75
2024/02/11 10:50:41;;;;;;;68.30;29.42;;;;;;;14.82;75.78;98755.00;4945016;28;99279;-74
2024/02/11 10:53:09;;;;;;;58.75;27.65;;;;;;;14.64;76.13;98750.22;4944531;28;99714;-76
2024/02/11 10:55:41;;;;;;;62.78;28.08;;;;;;;14.81;75.69;98743.50;4947856;28;96918;-76
2024/02/11 10:58:09;;;;;;;60.33;27.65;;;;;;;14.88;75.11;98746.50;4945225;28;96883;-76
2024/02/11 11:00:38;;;;;;;59.03;27.25;;;;;;;15.02;75.02;98740.84;4942664;28;97431;-74
2024/02/11 11:03:07;;;;;;;62.45;28.17;;;;;;;14.86;75.21;98741.31;4947375;28;101768;-76
2024/02/11 11:05:37;;;;;;;57.53;26.30;;;;;;;14.69;75.81;98748.06;4945558;28;96770;-74
2024/02/11 11:08:06;;;;;;;61.90;27.65;;;;;;;14.69;76.39;98741.88;4946283;28;98284;-74
2024/02/11 11:10:36;;;;;;;56.53;26.92;;;;;;;14.73;75.77;98736.19;4944418;28;98428;-75
2024/02/11 11:13:02;;;;;;;60.67;27.40;;;;;;;14.86;75.33;98735.13;4946029;28;100730;-74
2024/02/11 11:15:31;;;;;;;60.72;27.35;;;;;;;14.90;75.03;98734.75;4940497;28;101773;-74
2024/02/11 11:18:01;;;;;;;58.28;27.08;;;;;;;14.84;75.35;98731.75;4949367;28;97415;-75